sensor_id;sensor_type;location;lat;lon;timestamp;pressure;altitude;pressure_sealevel;temperature;humidity
26978;BME280;56314;48.088;11.642;2023-03-01T00:01:10;95952.28;;;0.58;71.58
26978;BME280;56314;48.088;11.642;2023-03-01T00:03:36;95949.75;;;0.57;71.29
26978;BME280;56314;48.088;11.642;2023-03-01T00:06:02;95944.72;;;0.52;71.63
26978;BME280;56314;48.088;11.642;2023-03-01T00:08:28;95946.50;;;0.50;71.86
26978;BME280;56314;48.088;11.642;2023-03-01T00:13:27;95946.53;;;0.49;71.55
26978;BME280;56314;48.088;11.642;2023-03-01T00:15:52;95942.16;;;0.51;71.69
26978;BME280;56314;48.088;11.642;2023-03-01T00:18:18;95946.53;;;0.49;71.99
26978;BME280;56314;48.088;11.642;2023-03-01T00:20:53;95950.09;;;0.44;72.02
26978;BME280;56314;48.088;11.642;2023-03-01T00:23:19;95950.81;;;0.50;71.71
26978;BME280;56314;48.088;11.642;2023-03-01T00:25:45;95940.59;;;0.47;71.54
26978;BME280;56314;48.088;11.642;2023-03-01T00:28:10;95941.56;;;0.42;71.55
26978;BME280;56314;48.088;11.642;2023-03-01T00:30:35;95943.38;;;0.39;71.84
26978;BME280;56314;48.088;11.642;2023-03-01T00:33:01;95937.47;;;0.35;71.86
26978;BME280;56314;48.088;11.642;2023-03-01T00:35:26;95941.50;;;0.44;71.84
26978;BME280;56314;48.088;11.642;2023-03-01T00:37:51;95939.50;;;0.54;72.37
26978;BME280;56314;48.088;11.642;2023-03-01T00:40:23;95934.28;;;0.55;71.75
26978;BME280;56314;48.088;11.642;2023-03-01T00:42:49;95933.78;;;0.42;71.33
26978;BME280;56314;48.088;11.642;2023-03-01T00:45:14;95929.50;;;0.41;71.48
26978;BME280;56314;48.088;11.642;2023-03-01T00:47:40;95928.84;;;0.35;72.24
26978;BME280;56314;48.088;11.642;2023-03-01T00:50:06;95925.28;;;0.39;72.89
26978;BME280;56314;48.088;11.642;2023-03-01T00:52:31;95925.25;;;0.40;72.96
26978;BME280;56314;48.088;11.642;2023-03-01T00:54:56;95924.19;;;0.48;71.99
26978;BME280;56314;48.088;11.642;2023-03-01T00:57:23;95923.53;;;0.39;71.86
26978;BME280;56314;48.088;11.642;2023-03-01T00:59:48;95920.06;;;0.40;71.28
26978;BME280;56314;48.088;11.642;2023-03-01T01:02:13;95922.53;;;0.45;71.94
26978;BME280;56314;48.088;11.642;2023-03-01T01:04:39;95914.78;;;0.45;72.35
26978;BME280;56314;48.088;11.642;2023-03-01T01:07:04;95909.66;;;0.43;72.27
26978;BME280;56314;48.088;11.642;2023-03-01T01:09:30;95912.91;;;0.50;72.05
26978;BME280;56314;48.088;11.642;2023-03-01T01:11:56;95914.88;;;0.42;71.43
26978;BME280;56314;48.088;11.642;2023-03-01T01:14:21;95904.56;;;0.40;72.13
26978;BME280;56314;48.088;11.642;2023-03-01T01:16:47;95900.25;;;0.41;72.31
26978;BME280;56314;48.088;11.642;2023-03-01T01:19:13;95894.22;;;0.42;72.57
26978;BME280;56314;48.088;11.642;2023-03-01T01:21:38;95891.84;;;0.34;72.29
26978;BME280;56314;48.088;11.642;2023-03-01T01:24:04;95890.94;;;0.35;72.10
26978;BME280;56314;48.088;11.642;2023-03-01T01:26:32;95890.69;;;0.43;71.92
26978;BME280;56314;48.088;11.642;2023-03-01T01:28:59;95891.72;;;0.39;71.14
26978;BME280;56314;48.088;11.642;2023-03-01T01:31:26;95888.22;;;0.40;72.25
26978;BME280;56314;48.088;11.642;2023-03-01T01:33:55;95886.69;;;0.33;72.49
26978;BME280;56314;48.088;11.642;2023-03-01T01:36:21;95881.53;;;0.33;71.88
26978;BME280;56314;48.088;11.642;2023-03-01T01:38:46;95875.66;;;0.27;72.46
26978;BME280;56314;48.088;11.642;2023-03-01T01:41:12;95863.38;;;0.36;72.57
26978;BME280;56314;48.088;11.642;2023-03-01T01:43:47;95868.81;;;0.26;71.92
26978;BME280;56314;48.088;11.642;2023-03-01T01:48:50;95864.19;;;0.38;71.15
26978;BME280;56314;48.088;11.642;2023-03-01T01:51:25;95859.91;;;0.37;72.07
26978;BME280;56314;48.088;11.642;2023-03-01T01:53:58;95860.13;;;0.29;72.05
26978;BME280;56314;48.088;11.642;2023-03-01T01:56:26;95861.75;;;0.32;70.93
26978;BME280;56314;48.088;11.642;2023-03-01T01:58:54;95853.25;;;0.28;71.30
26978;BME280;56314;48.088;11.642;2023-03-01T02:01:20;95850.50;;;0.34;71.10
26978;BME280;56314;48.088;11.642;2023-03-01T02:03:46;95847.19;;;0.29;72.08
26978;BME280;56314;48.088;11.642;2023-03-01T02:06:18;95849.13;;;0.22;72.35
26978;BME280;56314;48.088;11.642;2023-03-01T02:08:47;95846.53;;;0.22;72.54
26978;BME280;56314;48.088;11.642;2023-03-01T02:11:13;95853.38;;;0.23;71.85
26978;BME280;56314;48.088;11.642;2023-03-01T02:13:42;95850.72;;;0.26;72.00
26978;BME280;56314;48.088;11.642;2023-03-01T02:16:10;95854.25;;;0.24;72.12
26978;BME280;56314;48.088;11.642;2023-03-01T02:18:37;95846.72;;;0.16;72.92
26978;BME280;56314;48.088;11.642;2023-03-01T02:21:12;95855.22;;;0.20;72.42
26978;BME280;56314;48.088;11.642;2023-03-01T02:23:42;95843.13;;;0.22;73.23
26978;BME280;56314;48.088;11.642;2023-03-01T02:26:21;95843.19;;;0.19;71.94
26978;BME280;56314;48.088;11.642;2023-03-01T02:28:50;95839.72;;;0.20;72.36
26978;BME280;56314;48.088;11.642;2023-03-01T02:31:18;95838.91;;;0.18;72.60
26978;BME280;56314;48.088;11.642;2023-03-01T02:34:03;95836.28;;;0.19;71.86
26978;BME280;56314;48.088;11.642;2023-03-01T02:36:35;95838.97;;;0.16;72.37
26978;BME280;56314;48.088;11.642;2023-03-01T02:39:04;95843.19;;;0.19;72.57
26978;BME280;56314;48.088;11.642;2023-03-01T02:41:35;95834.63;;;0.17;72.40
26978;BME280;56314;48.088;11.642;2023-03-01T02:44:02;95835.66;;;0.11;72.99
26978;BME280;56314;48.088;11.642;2023-03-01T02:46:28;95827.75;;;0.17;72.70
26978;BME280;56314;48.088;11.642;2023-03-01T02:48:56;95829.47;;;0.17;72.72
26978;BME280;56314;48.088;11.642;2023-03-01T02:56:40;95831.22;;;0.16;71.25
26978;BME280;56314;48.088;11.642;2023-03-01T02:59:06;95830.56;;;0.08;72.11
26978;BME280;56314;48.088;11.642;2023-03-01T03:01:31;95830.56;;;0.08;71.54
26978;BME280;56314;48.088;11.642;2023-03-01T03:04:08;95827.09;;;0.09;71.56
26978;BME280;56314;48.088;11.642;2023-03-01T03:06:35;95833.16;;;0.08;72.04
26978;BME280;56314;48.088;11.642;2023-03-01T03:09:00;95832.31;;;0.07;71.56
26978;BME280;56314;48.088;11.642;2023-03-01T03:11:26;95832.47;;;0.03;71.85
26978;BME280;56314;48.088;11.642;2023-03-01T03:13:51;95838.59;;;-0.02;71.67
26978;BME280;56314;48.088;11.642;2023-03-01T03:16:17;95841.19;;;-0.02;72.04
26978;BME280;56314;48.088;11.642;2023-03-01T03:18:43;95829.22;;;-0.04;72.20
26978;BME280;56314;48.088;11.642;2023-03-01T03:21:10;95831.78;;;-0.04;71.44
26978;BME280;56314;48.088;11.642;2023-03-01T03:23:36;95831.28;;;-0.17;72.00
26978;BME280;56314;48.088;11.642;2023-03-01T03:26:03;95830.38;;;-0.14;71.52
26978;BME280;56314;48.088;11.642;2023-03-01T03:28:30;95822.75;;;-0.19;71.81
26978;BME280;56314;48.088;11.642;2023-03-01T03:30:56;95827.84;;;-0.18;72.31
26978;BME280;56314;48.088;11.642;2023-03-01T03:33:21;95827.59;;;-0.08;71.73
26978;BME280;56314;48.088;11.642;2023-03-01T03:35:48;95819.28;;;-0.18;72.08
26978;BME280;56314;48.088;11.642;2023-03-01T03:38:15;95824.38;;;-0.17;71.94
26978;BME280;56314;48.088;11.642;2023-03-01T03:40:46;95819.38;;;-0.23;71.61
26978;BME280;56314;48.088;11.642;2023-03-01T03:43:14;95819.38;;;-0.23;71.68
26978;BME280;56314;48.088;11.642;2023-03-01T03:45:40;95826.00;;;-0.12;71.79
26978;BME280;56314;48.088;11.642;2023-03-01T03:48:07;95823.88;;;-0.29;71.91
26978;BME280;56314;48.088;11.642;2023-03-01T03:50:34;95811.81;;;-0.29;71.53
26978;BME280;56314;48.088;11.642;2023-03-01T03:53:00;95813.53;;;-0.28;72.08
26978;BME280;56314;48.088;11.642;2023-03-01T03:55:26;95815.09;;;-0.22;71.80
26978;BME280;56314;48.088;11.642;2023-03-01T03:57:57;95805.66;;;-0.23;71.87
26978;BME280;56314;48.088;11.642;2023-03-01T04:00:23;95801.31;;;-0.23;71.73
26978;BME280;56314;48.088;11.642;2023-03-01T04:02:50;95806.47;;;-0.23;71.68
26978;BME280;56314;48.088;11.642;2023-03-01T04:05:17;95796.16;;;-0.23;71.72
26978;BME280;56314;48.088;11.642;2023-03-01T04:07:44;95795.19;;;-0.19;71.75
26978;BME280;56314;48.088;11.642;2023-03-01T04:10:16;95802.00;;;-0.16;69.96
26978;BME280;56314;48.088;11.642;2023-03-01T04:12:41;95810.97;;;-0.29;71.22
26978;BME280;56314;48.088;11.642;2023-03-01T04:15:09;95805.19;;;-0.38;71.70
26978;BME280;56314;48.088;11.642;2023-03-01T04:17:45;95805.09;;;-0.35;71.00
26978;BME280;56314;48.088;11.642;2023-03-01T04:20:14;95802.44;;;-0.32;71.52
26978;BME280;56314;48.088;11.642;2023-03-01T04:22:42;95808.44;;;-0.31;71.96
26978;BME280;56314;48.088;11.642;2023-03-01T04:25:09;95799.88;;;-0.32;71.17
26978;BME280;56314;48.088;11.642;2023-03-01T04:27:35;95794.69;;;-0.32;71.48
26978;BME280;56314;48.088;11.642;2023-03-01T04:30:02;95794.03;;;-0.40;71.29
26978;BME280;56314;48.088;11.642;2023-03-01T04:32:28;95799.47;;;-0.49;71.90
26978;BME280;56314;48.088;11.642;2023-03-01T04:34:53;95793.47;;;-0.50;71.39
26978;BME280;56314;48.088;11.642;2023-03-01T04:37:19;95794.97;;;-0.42;71.63
26978;BME280;56314;48.088;11.642;2023-03-01T04:39:44;95786.41;;;-0.43;72.11
26978;BME280;56314;48.088;11.642;2023-03-01T04:42:13;95788.81;;;-0.37;71.61
26978;BME280;56314;48.088;11.642;2023-03-01T04:44:38;95786.28;;;-0.38;71.80
26978;BME280;56314;48.088;11.642;2023-03-01T04:47:04;95786.44;;;-0.44;70.59
26978;BME280;56314;48.088;11.642;2023-03-01T04:49:29;95791.66;;;-0.46;71.19
26978;BME280;56314;48.088;11.642;2023-03-01T04:51:55;95790.66;;;-0.42;71.12
26978;BME280;56314;48.088;11.642;2023-03-01T04:54:21;95787.28;;;-0.44;71.03
26978;BME280;56314;48.088;11.642;2023-03-01T04:56:46;95787.44;;;-0.50;70.46
26978;BME280;56314;48.088;11.642;2023-03-01T04:59:11;95786.69;;;-0.54;71.64
26978;BME280;56314;48.088;11.642;2023-03-01T05:01:37;95789.41;;;-0.60;71.70
26978;BME280;56314;48.088;11.642;2023-03-01T05:04:03;95787.13;;;-0.71;72.46
26978;BME280;56314;48.088;11.642;2023-03-01T05:06:30;95786.38;;;-0.74;72.35
26978;BME280;56314;48.088;11.642;2023-03-01T05:08:56;95781.25;;;-0.76;72.90
26978;BME280;56314;48.088;11.642;2023-03-01T05:11:21;95787.13;;;-0.71;72.84
26978;BME280;56314;48.088;11.642;2023-03-01T05:13:46;95779.34;;;-0.69;73.33
26978;BME280;56314;48.088;11.642;2023-03-01T05:16:12;95778.31;;;-0.62;73.14
26978;BME280;56314;48.088;11.642;2023-03-01T05:18:37;95784.06;;;-0.52;73.00
26978;BME280;56314;48.088;11.642;2023-03-01T05:21:10;95778.94;;;-0.54;71.81
26978;BME280;56314;48.088;11.642;2023-03-01T05:23:36;95778.34;;;-0.64;72.82
26978;BME280;56314;48.088;11.642;2023-03-01T05:26:03;95774.31;;;-0.72;72.69
26978;BME280;56314;48.088;11.642;2023-03-01T05:28:29;95779.34;;;-0.68;72.88
26978;BME280;56314;48.088;11.642;2023-03-01T05:30:56;95777.84;;;-0.76;72.19
26978;BME280;56314;48.088;11.642;2023-03-01T05:33:21;95776.22;;;-0.81;72.64
26978;BME280;56314;48.088;11.642;2023-03-01T05:35:47;95772.81;;;-0.81;72.21
26978;BME280;56314;48.088;11.642;2023-03-01T05:38:14;95774.56;;;-0.83;72.93
26978;BME280;56314;48.088;11.642;2023-03-01T05:40:44;95775.41;;;-0.83;72.57
26978;BME280;56314;48.088;11.642;2023-03-01T05:43:09;95772.13;;;-0.89;72.84
26978;BME280;56314;48.088;11.642;2023-03-01T05:45:37;95766.28;;;-0.95;72.43
26978;BME280;56314;48.088;11.642;2023-03-01T05:48:02;95767.41;;;-1.06;72.74
26978;BME280;56314;48.088;11.642;2023-03-01T05:50:29;95764.75;;;-1.03;72.85
26978;BME280;56314;48.088;11.642;2023-03-01T05:52:59;95766.41;;;-1.01;72.70
26978;BME280;56314;48.088;11.642;2023-03-01T05:55:25;95762.94;;;-0.98;72.74
26978;BME280;56314;48.088;11.642;2023-03-01T05:57:50;95759.34;;;-0.93;72.65
26978;BME280;56314;48.088;11.642;2023-03-01T06:00:17;95773.44;;;-1.06;73.29
26978;BME280;56314;48.088;11.642;2023-03-01T06:02:43;95769.97;;;-1.05;73.36
26978;BME280;56314;48.088;11.642;2023-03-01T06:05:11;95773.25;;;-0.98;73.22
26978;BME280;56314;48.088;11.642;2023-03-01T06:07:36;95773.19;;;-0.97;73.17
26978;BME280;56314;48.088;11.642;2023-03-01T06:10:04;95782.56;;;-0.93;72.92
26978;BME280;56314;48.088;11.642;2023-03-01T06:12:31;95783.75;;;-1.08;73.59
26978;BME280;56314;48.088;11.642;2023-03-01T06:14:58;95784.75;;;-1.12;73.86
26978;BME280;56314;48.088;11.642;2023-03-01T06:17:23;95782.69;;;-0.99;73.59
26978;BME280;56314;48.088;11.642;2023-03-01T06:19:48;95781.56;;;-0.88;73.16
26978;BME280;56314;48.088;11.642;2023-03-01T06:22:14;95780.88;;;-0.95;73.93
26978;BME280;56314;48.088;11.642;2023-03-01T06:24:39;95790.13;;;-0.86;73.69
26978;BME280;56314;48.088;11.642;2023-03-01T06:27:04;95784.13;;;-0.87;73.34
26978;BME280;56314;48.088;11.642;2023-03-01T06:29:30;95778.72;;;-0.78;73.32
26978;BME280;56314;48.088;11.642;2023-03-01T06:31:55;95783.94;;;-0.81;73.77
26978;BME280;56314;48.088;11.642;2023-03-01T06:34:21;95787.25;;;-0.75;72.86
26978;BME280;56314;48.088;11.642;2023-03-01T06:36:46;95783.06;;;-0.80;72.77
26978;BME280;56314;48.088;11.642;2023-03-01T06:39:12;95784.00;;;-0.82;72.90
26978;BME280;56314;48.088;11.642;2023-03-01T06:41:37;95775.28;;;-0.78;72.31
26978;BME280;56314;48.088;11.642;2023-03-01T06:44:02;95787.25;;;-0.75;72.46
26978;BME280;56314;48.088;11.642;2023-03-01T06:46:28;95789.09;;;-0.81;72.46
26978;BME280;56314;48.088;11.642;2023-03-01T06:48:53;95789.91;;;-0.79;73.42
26978;BME280;56314;48.088;11.642;2023-03-01T06:51:18;95781.31;;;-0.78;73.11
26978;BME280;56314;48.088;11.642;2023-03-01T06:53:45;95780.84;;;-0.94;73.25
26978;BME280;56314;48.088;11.642;2023-03-01T06:56:11;95786.84;;;-0.93;73.85
26978;BME280;56314;48.088;11.642;2023-03-01T06:58:36;95791.84;;;-0.87;72.86
26978;BME280;56314;48.088;11.642;2023-03-01T07:01:06;95791.88;;;-0.88;73.36
26978;BME280;56314;48.088;11.642;2023-03-01T07:03:31;95790.00;;;-0.82;73.80
26978;BME280;56314;48.088;11.642;2023-03-01T07:05:56;95788.28;;;-0.83;72.92
26978;BME280;56314;48.088;11.642;2023-03-01T07:08:22;95792.44;;;-0.77;73.31
26978;BME280;56314;48.088;11.642;2023-03-01T07:10:47;95787.09;;;-0.69;73.16
26978;BME280;56314;48.088;11.642;2023-03-01T07:13:12;95784.25;;;-0.60;73.20
26978;BME280;56314;48.088;11.642;2023-03-01T07:15:40;95776.50;;;-0.58;72.64
26978;BME280;56314;48.088;11.642;2023-03-01T07:18:05;95778.28;;;-0.60;72.99
26978;BME280;56314;48.088;11.642;2023-03-01T07:20:30;95778.00;;;-0.51;72.88
26978;BME280;56314;48.088;11.642;2023-03-01T07:22:56;95771.94;;;-0.49;72.27
26978;BME280;56314;48.088;11.642;2023-03-01T07:25:23;95768.44;;;-0.46;71.40
26978;BME280;56314;48.088;11.642;2023-03-01T07:27:50;95767.47;;;-0.43;71.78
26978;BME280;56314;48.088;11.642;2023-03-01T07:30:16;95770.06;;;-0.43;72.15
26978;BME280;56314;48.088;11.642;2023-03-01T07:32:42;95773.53;;;-0.44;71.73
26978;BME280;56314;48.088;11.642;2023-03-01T07:35:07;95769.56;;;-0.56;71.68
26978;BME280;56314;48.088;11.642;2023-03-01T07:37:33;95767.91;;;-0.59;72.37
26978;BME280;56314;48.088;11.642;2023-03-01T07:39:58;95766.34;;;-0.65;72.47
26978;BME280;56314;48.088;11.642;2023-03-01T07:42:23;95765.16;;;-0.53;71.97
26978;BME280;56314;48.088;11.642;2023-03-01T07:44:49;95761.50;;;-0.45;71.39
26978;BME280;56314;48.088;11.642;2023-03-01T07:47:14;95765.91;;;-0.49;72.28
26978;BME280;56314;48.088;11.642;2023-03-01T07:49:39;95762.19;;;-0.39;72.23
26978;BME280;56314;48.088;11.642;2023-03-01T07:52:05;95759.66;;;-0.40;72.19
26978;BME280;56314;48.088;11.642;2023-03-01T07:54:30;95766.34;;;-0.33;71.86
26978;BME280;56314;48.088;11.642;2023-03-01T07:56:56;95761.09;;;-0.30;72.02
26978;BME280;56314;48.088;11.642;2023-03-01T07:59:22;95755.88;;;-0.28;71.49
26978;BME280;56314;48.088;11.642;2023-03-01T08:01:48;95759.94;;;-0.20;71.19
26978;BME280;56314;48.088;11.642;2023-03-01T08:04:14;95759.63;;;-0.39;70.68
26978;BME280;56314;48.088;11.642;2023-03-01T08:06:39;95759.47;;;-0.33;71.63
26978;BME280;56314;48.088;11.642;2023-03-01T08:09:04;95758.50;;;-0.30;71.23
26978;BME280;56314;48.088;11.642;2023-03-01T08:11:30;95757.03;;;-0.39;71.31
26978;BME280;56314;48.088;11.642;2023-03-01T08:13:55;95763.94;;;-0.39;71.39
26978;BME280;56314;48.088;11.642;2023-03-01T08:16:22;95758.47;;;-0.28;71.43
26978;BME280;56314;48.088;11.642;2023-03-01T08:18:48;95758.31;;;-0.22;71.31
26978;BME280;56314;48.088;11.642;2023-03-01T08:21:15;95751.31;;;-0.19;70.32
26978;BME280;56314;48.088;11.642;2023-03-01T08:23:42;95751.22;;;-0.16;70.95
26978;BME280;56314;48.088;11.642;2023-03-01T08:26:10;95757.94;;;-0.10;69.97
26978;BME280;56314;48.088;11.642;2023-03-01T08:28:37;95756.53;;;-0.20;70.03
26978;BME280;56314;48.088;11.642;2023-03-01T08:31:03;95755.50;;;-0.14;70.33
26978;BME280;56314;48.088;11.642;2023-03-01T08:33:37;95754.41;;;-0.07;69.93
26978;BME280;56314;48.088;11.642;2023-03-01T08:36:04;95755.16;;;-0.04;69.16
26978;BME280;56314;48.088;11.642;2023-03-01T08:38:32;95745.63;;;0.00;69.91
26978;BME280;56314;48.088;11.642;2023-03-01T08:41:02;95740.13;;;0.11;69.76
26978;BME280;56314;48.088;11.642;2023-03-01T08:43:27;95736.25;;;0.24;68.91
26978;BME280;56314;48.088;11.642;2023-03-01T08:45:53;95733.81;;;0.20;69.49
26978;BME280;56314;48.088;11.642;2023-03-01T08:48:18;95722.88;;;0.40;68.46
26978;BME280;56314;48.088;11.642;2023-03-01T08:50:44;95730.56;;;0.41;68.05
26978;BME280;56314;48.088;11.642;2023-03-01T08:53:09;95732.56;;;0.33;67.93
26978;BME280;56314;48.088;11.642;2023-03-01T08:55:34;95734.84;;;0.42;68.58
26978;BME280;56314;48.088;11.642;2023-03-01T08:58:00;95730.41;;;0.46;68.24
26978;BME280;56314;48.088;11.642;2023-03-01T09:00:25;95728.19;;;0.35;68.64
26978;BME280;56314;48.088;11.642;2023-03-01T09:02:53;95733.16;;;0.41;67.89
26978;BME280;56314;48.088;11.642;2023-03-01T09:05:18;95719.00;;;0.53;68.12
26978;BME280;56314;48.088;11.642;2023-03-01T09:07:44;95725.66;;;0.60;68.43
26978;BME280;56314;48.088;11.642;2023-03-01T09:10:09;95730.38;;;0.74;66.71
26978;BME280;56314;48.088;11.642;2023-03-01T09:12:35;95725.34;;;0.70;67.30
26978;BME280;56314;48.088;11.642;2023-03-01T09:15:00;95720.41;;;0.89;66.61
26978;BME280;56314;48.088;11.642;2023-03-01T09:17:25;95724.28;;;1.02;66.31
26978;BME280;56314;48.088;11.642;2023-03-01T09:19:51;95720.22;;;0.95;65.52
26978;BME280;56314;48.088;11.642;2023-03-01T09:22:16;95720.50;;;0.86;65.83
26978;BME280;56314;48.088;11.642;2023-03-01T09:24:42;95702.94;;;0.96;65.75
26978;BME280;56314;48.088;11.642;2023-03-01T09:27:07;95715.38;;;1.11;66.17
26978;BME280;56314;48.088;11.642;2023-03-01T09:29:36;95713.00;;;1.29;65.66
26978;BME280;56314;48.088;11.642;2023-03-01T09:32:02;95713.88;;;1.29;65.52
26978;BME280;56314;48.088;11.642;2023-03-01T09:34:27;95708.72;;;1.28;65.01
26978;BME280;56314;48.088;11.642;2023-03-01T09:36:53;95710.19;;;1.11;64.96
26978;BME280;56314;48.088;11.642;2023-03-01T09:39:19;95714.34;;;1.15;65.00
26978;BME280;56314;48.088;11.642;2023-03-01T09:42:00;95703.31;;;1.10;65.53
26978;BME280;56314;48.088;11.642;2023-03-01T09:47:20;95705.34;;;1.51;64.89
26978;BME280;56314;48.088;11.642;2023-03-01T09:50:15;95713.09;;;1.51;64.55
26978;BME280;56314;48.088;11.642;2023-03-01T09:52:54;95713.66;;;1.59;63.57
26978;BME280;56314;48.088;11.642;2023-03-01T09:55:39;95701.56;;;1.60;64.21
26978;BME280;56314;48.088;11.642;2023-03-01T10:01:23;95703.53;;;1.77;64.36
26978;BME280;56314;48.088;11.642;2023-03-01T10:06:28;95702.81;;;1.73;64.35
26978;BME280;56314;48.088;11.642;2023-03-01T10:09:02;95698.47;;;1.74;63.76
26978;BME280;56314;48.088;11.642;2023-03-01T10:11:33;95700.94;;;1.53;63.48
26978;BME280;56314;48.088;11.642;2023-03-01T10:16:51;95709.78;;;1.22;64.60
26978;BME280;56314;48.088;11.642;2023-03-01T10:19:36;95701.31;;;1.18;65.06
26978;BME280;56314;48.088;11.642;2023-03-01T10:24:36;95684.69;;;1.49;65.19
26978;BME280;56314;48.088;11.642;2023-03-01T10:27:15;95686.47;;;1.95;63.81
26978;BME280;56314;48.088;11.642;2023-03-01T10:29:50;95682.72;;;2.24;62.99
26978;BME280;56314;48.088;11.642;2023-03-01T10:32:21;95687.31;;;2.18;61.16
26978;BME280;56314;48.088;11.642;2023-03-01T10:34:47;95689.59;;;2.25;61.26
26978;BME280;56314;48.088;11.642;2023-03-01T10:37:17;95681.53;;;2.33;61.37
26978;BME280;56314;48.088;11.642;2023-03-01T10:40:07;95675.81;;;2.88;60.71
26978;BME280;56314;48.088;11.642;2023-03-01T10:42:48;95682.81;;;2.86;59.31
26978;BME280;56314;48.088;11.642;2023-03-01T10:45:19;95674.31;;;2.83;59.47
26978;BME280;56314;48.088;11.642;2023-03-01T10:48:11;95666.59;;;4.90;55.99
26978;BME280;56314;48.088;11.642;2023-03-01T10:50:39;95651.78;;;5.75;50.92
26978;BME280;56314;48.088;11.642;2023-03-01T10:55:44;95629.47;;;7.25;47.70
26978;BME280;56314;48.088;11.642;2023-03-01T10:58:21;95634.38;;;6.70;47.58
26978;BME280;56314;48.088;11.642;2023-03-01T11:00:50;95618.66;;;6.41;48.07
26978;BME280;56314;48.088;11.642;2023-03-01T11:03:21;95627.78;;;6.49;47.17
26978;BME280;56314;48.088;11.642;2023-03-01T11:05:55;95603.31;;;6.96;46.94
26978;BME280;56314;48.088;11.642;2023-03-01T11:11:13;95596.06;;;7.86;45.11
26978;BME280;56314;48.088;11.642;2023-03-01T11:13:55;95588.19;;;8.28;44.45
26978;BME280;56314;48.088;11.642;2023-03-01T11:17:06;95576.53;;;8.20;43.23
26978;BME280;56314;48.088;11.642;2023-03-01T11:19:37;95577.09;;;8.25;42.84
26978;BME280;56314;48.088;11.642;2023-03-01T11:22:10;95577.84;;;7.43;44.60
26978;BME280;56314;48.088;11.642;2023-03-01T11:24:54;95578.41;;;6.90;46.22
26978;BME280;56314;48.088;11.642;2023-03-01T11:27:35;95577.84;;;7.14;45.87
26978;BME280;56314;48.088;11.642;2023-03-01T11:30:07;95565.72;;;7.57;44.50
26978;BME280;56314;48.088;11.642;2023-03-01T11:32:56;95564.72;;;7.72;44.46
26978;BME280;56314;48.088;11.642;2023-03-01T11:35:26;95567.88;;;7.06;44.90
26978;BME280;56314;48.088;11.642;2023-03-01T11:43:15;95550.16;;;7.26;45.14
26978;BME280;56314;48.088;11.642;2023-03-01T11:45:52;95545.94;;;7.52;45.64
26978;BME280;56314;48.088;11.642;2023-03-01T11:50:50;95544.00;;;6.39;46.41
26978;BME280;56314;48.088;11.642;2023-03-01T11:53:32;95546.06;;;6.78;46.86
26978;BME280;56314;48.088;11.642;2023-03-01T11:56:43;95540.75;;;7.09;46.32
26978;BME280;56314;48.088;11.642;2023-03-01T12:07:39;95530.66;;;6.59;46.98
26978;BME280;56314;48.088;11.642;2023-03-01T12:10:23;95525.09;;;5.89;49.44
26978;BME280;56314;48.088;11.642;2023-03-01T12:15:53;95521.53;;;5.43;52.23
26978;BME280;56314;48.088;11.642;2023-03-01T12:18:55;95516.97;;;5.31;51.48
26978;BME280;56314;48.088;11.642;2023-03-01T12:30:09;95508.56;;;4.76;53.74
26978;BME280;56314;48.088;11.642;2023-03-01T12:32:50;95516.38;;;4.76;54.13
26978;BME280;56314;48.088;11.642;2023-03-01T12:35:30;95510.97;;;4.63;54.37
26978;BME280;56314;48.088;11.642;2023-03-01T12:38:08;95501.06;;;4.54;54.66
26978;BME280;56314;48.088;11.642;2023-03-01T12:43:43;95492.09;;;5.41;52.31
26978;BME280;56314;48.088;11.642;2023-03-01T12:46:15;95493.84;;;6.19;51.07
26978;BME280;56314;48.088;11.642;2023-03-01T12:49:02;95483.84;;;7.00;48.86
26978;BME280;56314;48.088;11.642;2023-03-01T12:51:32;95487.34;;;7.69;46.84
26978;BME280;56314;48.088;11.642;2023-03-01T12:54:02;95494.84;;;7.89;46.32
26978;BME280;56314;48.088;11.642;2023-03-01T12:56:35;95480.22;;;7.86;46.63
26978;BME280;56314;48.088;11.642;2023-03-01T12:59:44;95481.22;;;8.11;45.60
26978;BME280;56314;48.088;11.642;2023-03-01T13:02:23;95471.13;;;8.45;44.30
26978;BME280;56314;48.088;11.642;2023-03-01T13:05:04;95472.97;;;8.17;45.68
26978;BME280;56314;48.088;11.642;2023-03-01T13:11:03;95471.50;;;8.26;45.29
26978;BME280;56314;48.088;11.642;2023-03-01T13:13:30;95474.03;;;8.40;45.13
26978;BME280;56314;48.088;11.642;2023-03-01T13:15:57;95478.94;;;8.19;44.85
26978;BME280;56314;48.088;11.642;2023-03-01T13:18:36;95481.59;;;7.92;45.37
26978;BME280;56314;48.088;11.642;2023-03-01T13:21:02;95479.88;;;8.18;46.12
26978;BME280;56314;48.088;11.642;2023-03-01T13:23:32;95479.25;;;8.27;45.45
26978;BME280;56314;48.088;11.642;2023-03-01T13:26:16;95466.41;;;8.37;45.32
26978;BME280;56314;48.088;11.642;2023-03-01T13:34:00;95457.91;;;7.80;46.54
26978;BME280;56314;48.088;11.642;2023-03-01T13:44:25;95456.13;;;8.21;44.99
26978;BME280;56314;48.088;11.642;2023-03-01T13:46:53;95460.94;;;8.14;45.82
26978;BME280;56314;48.088;11.642;2023-03-01T13:49:29;95460.38;;;7.96;47.18
26978;BME280;56314;48.088;11.642;2023-03-01T13:51:58;95445.03;;;8.18;46.79
26978;BME280;56314;48.088;11.642;2023-03-01T13:54:31;95440.22;;;8.37;45.47
26978;BME280;56314;48.088;11.642;2023-03-01T13:56:59;95447.53;;;8.32;45.78
26978;BME280;56314;48.088;11.642;2023-03-01T13:59:25;95451.78;;;8.07;46.15
26978;BME280;56314;48.088;11.642;2023-03-01T14:01:56;95444.88;;;8.06;46.33
26978;BME280;56314;48.088;11.642;2023-03-01T14:04:25;95442.53;;;8.29;46.70
26978;BME280;56314;48.088;11.642;2023-03-01T14:06:52;95440.63;;;8.18;46.15
26978;BME280;56314;48.088;11.642;2023-03-01T14:09:35;95438.00;;;8.31;46.30
26978;BME280;56314;48.088;11.642;2023-03-01T14:15:04;95439.66;;;8.06;47.11
26978;BME280;56314;48.088;11.642;2023-03-01T14:20:07;95433.16;;;7.86;48.61
26978;BME280;56314;48.088;11.642;2023-03-01T14:22:35;95408.69;;;7.87;47.65
26978;BME280;56314;48.088;11.642;2023-03-01T14:25:06;95412.25;;;7.99;47.86
26978;BME280;56314;48.088;11.642;2023-03-01T14:27:42;95400.84;;;7.87;48.43